createdAt,value
2023-04-14T00:01:30.808Z,3.15
2023-04-14T00:04:16.882Z,3.50
2023-04-14T00:07:02.100Z,3.67
2023-04-14T00:09:47.282Z,3.00
2023-04-14T00:12:32.419Z,2.75
2023-04-14T00:15:18.188Z,2.97
2023-04-14T00:18:03.394Z,3.42
2023-04-14T00:20:48.522Z,3.17
2023-04-14T00:23:33.955Z,3.63
2023-04-14T00:26:19.339Z,3.45
2023-04-14T00:29:04.535Z,3.05
2023-04-14T00:31:49.745Z,3.60
2023-04-14T00:34:35.099Z,3.45
2023-04-14T00:37:20.464Z,3.25
2023-04-14T00:40:09.320Z,3.47
2023-04-14T00:42:54.654Z,3.35
2023-04-14T00:45:45.612Z,3.47
2023-04-14T00:48:31.469Z,2.90
2023-04-14T00:51:16.924Z,2.95
2023-04-14T00:54:09.641Z,2.90
2023-04-14T00:56:57.435Z,2.72
2023-04-14T00:59:42.609Z,2.80
2023-04-14T01:02:28.152Z,2.90
2023-04-14T01:05:14.035Z,3.40
2023-04-14T01:07:59.260Z,3.05
2023-04-14T01:11:03.663Z,3.03
2023-04-14T01:14:40.469Z,3.38
2023-04-14T01:17:34.782Z,3.38
2023-04-14T01:20:30.998Z,3.15
2023-04-14T01:23:26.789Z,3.30
2023-04-14T01:26:19.256Z,3.22
2023-04-14T01:29:28.428Z,3.05
2023-04-14T01:32:22.219Z,3.63
2023-04-14T01:35:23.460Z,3.20
2023-04-14T01:38:12.697Z,3.90
2023-04-14T01:43:49.908Z,3.55
2023-04-14T01:46:36.601Z,3.88
2023-04-14T01:49:23.845Z,2.90
2023-04-14T01:52:10.868Z,3.75
2023-04-14T01:54:58.562Z,3.65
2023-04-14T01:57:46.229Z,3.95
2023-04-14T02:00:33.426Z,4.78
2023-04-14T02:03:21.733Z,3.95
2023-04-14T02:06:08.933Z,4.10
2023-04-14T02:08:54.217Z,4.65
2023-04-14T02:11:40.612Z,3.90
2023-04-14T02:14:27.744Z,4.70
2023-04-14T02:17:13.867Z,4.15
2023-04-14T02:20:01.093Z,5.63
2023-04-14T02:22:46.109Z,4.43
2023-04-14T02:25:35.301Z,4.15
2023-04-14T02:28:22.910Z,5.97
2023-04-14T02:31:13.004Z,4.03
2023-04-14T02:34:01.072Z,3.80
2023-04-14T02:36:53.530Z,3.67
2023-04-14T02:39:43.872Z,4.43
2023-04-14T02:42:30.968Z,4.15
2023-04-14T02:45:23.105Z,4.95
2023-04-14T02:48:13.053Z,4.43
2023-04-14T02:50:59.894Z,3.72
2023-04-14T02:53:45.831Z,3.63
2023-04-14T02:56:32.053Z,4.55
2023-04-14T02:59:18.662Z,5.15
2023-04-14T03:02:06.220Z,3.65
2023-04-14T03:04:53.419Z,4.65
2023-04-14T03:07:40.502Z,4.95
2023-04-14T03:10:26.968Z,4.43
2023-04-14T03:13:14.075Z,4.25
2023-04-14T03:15:59.753Z,3.92
2023-04-14T03:18:45.892Z,3.83
2023-04-14T03:21:32.122Z,4.20
2023-04-14T03:24:24.381Z,4.47
2023-04-14T03:27:14.427Z,5.05
2023-04-14T03:30:07.266Z,3.40
2023-04-14T03:32:54.338Z,3.67
2023-04-14T03:35:40.371Z,4.20
2023-04-14T03:38:28.036Z,4.95
2023-04-14T03:41:14.791Z,4.15
2023-04-14T03:44:01.610Z,4.70
2023-04-14T03:46:49.252Z,4.75
2023-04-14T03:49:39.376Z,4.70
2023-04-14T03:52:26.571Z,4.38
2023-04-14T03:55:12.607Z,4.05
2023-04-14T03:57:59.505Z,5.68
2023-04-14T04:00:45.351Z,4.60
2023-04-14T04:03:31.496Z,4.82
2023-04-14T04:06:18.026Z,5.05
2023-04-14T04:09:05.873Z,4.82
2023-04-14T04:11:53.154Z,4.95
2023-04-14T04:14:41.864Z,4.68
2023-04-14T04:17:31.552Z,5.15
2023-04-14T04:20:18.647Z,4.28
2023-04-14T04:23:05.967Z,5.88
2023-04-14T04:25:51.954Z,5.38
2023-04-14T04:28:37.989Z,5.80
2023-04-14T04:31:24.314Z,5.20
2023-04-14T04:34:10.477Z,5.97
2023-04-14T04:36:56.318Z,4.80
2023-04-14T04:39:41.646Z,4.95
2023-04-14T04:42:27.165Z,5.30
2023-04-14T04:45:12.834Z,5.90
2023-04-14T04:47:57.997Z,7.63
2023-04-14T04:50:43.343Z,7.45
2023-04-14T04:53:28.605Z,5.78
2023-04-14T04:56:14.107Z,5.88
2023-04-14T04:58:59.745Z,5.20
2023-04-14T05:01:45.761Z,5.68
2023-04-14T05:04:31.137Z,6.32
2023-04-14T05:07:16.661Z,7.47
2023-04-14T05:10:01.757Z,6.22
2023-04-14T05:12:46.974Z,5.35
2023-04-14T05:15:32.201Z,5.78
2023-04-14T05:18:17.960Z,5.88
2023-04-14T05:21:07.843Z,5.32
2023-04-14T05:23:52.960Z,6.50
2023-04-14T05:26:57.826Z,6.43
2023-04-14T05:29:44.006Z,7.25
2023-04-14T05:32:29.434Z,7.75
2023-04-14T05:35:15.901Z,7.75
2023-04-14T05:38:01.480Z,7.40
2023-04-14T05:40:47.448Z,6.28
2023-04-14T05:43:32.766Z,6.70
2023-04-14T05:46:17.951Z,7.82
2023-04-14T05:49:04.935Z,6.35
2023-04-14T05:51:50.467Z,7.00
2023-04-14T05:54:35.814Z,7.05
2023-04-14T05:57:21.377Z,7.50
2023-04-14T06:00:10.599Z,7.13
2023-04-14T06:02:56.304Z,7.32
2023-04-14T06:05:42.007Z,6.57
2023-04-14T06:08:26.932Z,7.28
2023-04-14T06:11:13.407Z,7.72
2023-04-14T06:13:58.919Z,6.63
2023-04-14T06:16:44.361Z,7.30
2023-04-14T06:19:29.897Z,8.27
2023-04-14T06:22:19.325Z,7.80
2023-04-14T06:25:04.831Z,7.55
2023-04-14T06:27:50.368Z,7.40
2023-04-14T06:30:35.803Z,8.75
2023-04-14T06:33:21.035Z,9.18
2023-04-14T06:36:06.549Z,7.05
2023-04-14T06:38:51.623Z,6.13
2023-04-14T06:41:36.918Z,4.88
2023-04-14T06:44:22.297Z,4.88
2023-04-14T06:47:09.089Z,5.25
2023-04-14T06:49:54.022Z,5.10
2023-04-14T06:52:39.350Z,5.22
2023-04-14T06:55:24.556Z,5.50
2023-04-14T06:58:09.861Z,5.40
2023-04-14T07:01:03.141Z,4.82
2023-04-14T07:03:48.466Z,5.00
2023-04-14T07:06:33.813Z,5.70
2023-04-14T07:09:20.904Z,5.28
2023-04-14T07:12:06.560Z,4.88
2023-04-14T07:14:52.239Z,4.65
2023-04-14T07:17:37.393Z,3.28
2023-04-14T07:20:22.799Z,3.20
2023-04-14T07:23:07.718Z,2.53
2023-04-14T07:25:57.687Z,3.00
2023-04-14T07:28:43.028Z,3.80
2023-04-14T07:31:28.173Z,3.10
2023-04-14T07:34:13.362Z,3.88
2023-04-14T07:36:58.804Z,2.88
2023-04-14T07:39:44.026Z,2.65
2023-04-14T07:42:29.423Z,2.90
2023-04-14T07:45:14.432Z,2.70
2023-04-14T07:47:59.918Z,3.35
2023-04-14T07:50:48.354Z,3.15
2023-04-14T07:53:34.124Z,2.53
2023-04-14T07:56:19.570Z,2.75
2023-04-14T07:59:04.618Z,2.60
2023-04-14T08:01:49.864Z,2.88
2023-04-14T08:04:35.190Z,2.45
2023-04-14T08:07:20.738Z,2.83
2023-04-14T08:10:06.147Z,3.00
2023-04-14T08:12:51.403Z,2.72
2023-04-14T08:15:36.800Z,2.97
2023-04-14T08:18:22.212Z,2.67
2023-04-14T08:21:07.594Z,3.70
2023-04-14T08:23:52.805Z,3.83
2023-04-14T08:26:38.671Z,3.78
2023-04-14T08:29:24.023Z,3.70
2023-04-14T08:32:09.305Z,3.38
2023-04-14T08:35:38.396Z,2.80
2023-04-14T08:38:01.314Z,2.88
2023-04-14T08:40:53.517Z,3.20
2023-04-14T08:43:38.961Z,3.05
2023-04-14T08:46:27.296Z,2.97
2023-04-14T08:49:22.203Z,2.80
2023-04-14T08:52:10.819Z,2.92
2023-04-14T08:54:57.671Z,3.35
2023-04-14T08:57:44.212Z,3.40
2023-04-14T09:00:31.017Z,4.00
2023-04-14T09:03:16.408Z,2.90
2023-04-14T09:06:02.755Z,3.55
2023-04-14T09:08:48.181Z,2.95
2023-04-14T09:11:33.818Z,3.30
2023-04-14T09:14:20.800Z,2.80
2023-04-14T09:17:06.562Z,2.78
2023-04-14T09:20:38.936Z,3.00
2023-04-14T09:22:58.166Z,3.10
2023-04-14T09:25:43.548Z,3.15
2023-04-14T09:28:28.493Z,3.13
2023-04-14T09:31:13.949Z,3.08
2023-04-14T09:33:59.173Z,3.17
2023-04-14T09:37:13.951Z,2.63
2023-04-14T09:40:00.215Z,3.25
2023-04-14T09:42:47.266Z,3.80
2023-04-14T09:45:45.332Z,3.30
2023-04-14T09:48:30.554Z,2.65
2023-04-14T09:51:16.207Z,3.75
2023-04-14T09:54:07.053Z,2.88
2023-04-14T09:56:56.674Z,3.15
2023-04-14T09:59:41.982Z,3.33
2023-04-14T10:02:27.275Z,3.47
2023-04-14T10:05:12.875Z,4.55
2023-04-14T10:08:05.479Z,19.00
2023-04-14T10:10:51.633Z,9.65
2023-04-14T10:13:37.103Z,17.25
2023-04-14T10:16:23.344Z,6.30
2023-04-14T10:19:08.865Z,3.90
2023-04-14T10:21:54.609Z,5.57
2023-04-14T10:24:41.533Z,9.23
2023-04-14T10:27:30.156Z,7.13
2023-04-14T10:30:15.649Z,3.55
2023-04-14T10:33:02.403Z,11.55
2023-04-14T10:35:53.634Z,32.03
2023-04-14T10:38:44.531Z,16.80
2023-04-14T10:41:47.343Z,8.98
2023-04-14T10:44:35.209Z,7.60
2023-04-14T10:47:25.085Z,8.38
2023-04-14T10:50:18.558Z,8.45
2023-04-14T10:53:08.086Z,8.10
2023-04-14T10:55:58.080Z,12.75
2023-04-14T10:58:55.171Z,8.35
2023-04-14T11:01:41.565Z,7.55
2023-04-14T11:04:27.185Z,6.35
2023-04-14T11:07:21.745Z,6.82
2023-04-14T11:10:19.363Z,4.10
2023-04-14T11:13:07.540Z,2.65
2023-04-14T11:16:08.252Z,4.93
2023-04-14T11:18:54.630Z,4.93
2023-04-14T11:21:49.958Z,2.90
2023-04-14T11:24:35.104Z,6.05
2023-04-14T11:27:20.316Z,6.03
2023-04-14T11:30:14.245Z,2.58
2023-04-14T11:32:59.692Z,3.13
2023-04-14T11:35:45.948Z,3.20
2023-04-14T11:38:31.652Z,2.70
2023-04-14T11:41:16.925Z,3.42
2023-04-14T11:44:02.159Z,2.53
2023-04-14T11:46:47.302Z,3.30
2023-04-14T11:49:35.090Z,3.10
2023-04-14T11:52:21.045Z,2.63
2023-04-14T11:55:07.066Z,3.03
2023-04-14T11:57:53.364Z,2.17
2023-04-14T12:00:38.864Z,2.42
2023-04-14T12:03:29.282Z,3.55
2023-04-14T12:06:15.363Z,2.60
2023-04-14T12:09:03.799Z,2.50
2023-04-14T12:11:55.801Z,2.38
2023-04-14T12:14:42.810Z,2.90
2023-04-14T12:17:28.628Z,2.90
2023-04-14T12:20:16.108Z,2.17
2023-04-14T12:23:03.197Z,2.92
2023-04-14T12:25:52.336Z,2.83
2023-04-14T12:28:41.166Z,2.45
2023-04-14T12:31:29.790Z,1.88
2023-04-14T12:34:15.226Z,2.03
2023-04-14T12:37:07.146Z,2.55
2023-04-14T12:40:00.790Z,2.10
2023-04-14T12:42:54.128Z,3.15
2023-04-14T12:45:48.978Z,2.72
2023-04-14T12:48:45.767Z,2.60
2023-04-14T12:51:38.916Z,3.33
2023-04-14T12:54:23.831Z,1.92
2023-04-14T12:57:09.312Z,1.90
2023-04-14T12:59:54.872Z,1.92
2023-04-14T13:02:40.181Z,1.90
2023-04-14T13:05:25.484Z,2.58
2023-04-14T13:08:11.706Z,2.55
2023-04-14T13:10:57.176Z,2.55
2023-04-14T13:13:44.417Z,2.90
2023-04-14T13:16:30.030Z,2.30
2023-04-14T13:19:15.249Z,2.15
2023-04-14T13:22:00.608Z,2.70
2023-04-14T13:24:46.326Z,2.40
2023-04-14T13:27:31.440Z,2.13
2023-04-14T13:30:16.787Z,2.33
2023-04-14T13:33:02.030Z,1.95
2023-04-14T13:35:47.411Z,2.00
2023-04-14T13:38:33.463Z,2.10
2023-04-14T13:41:19.627Z,2.17
2023-04-14T13:44:05.192Z,2.28
2023-04-14T13:46:53.914Z,2.20
2023-04-14T13:52:24.160Z,1.88
2023-04-14T13:55:11.013Z,2.30
2023-04-14T13:57:56.294Z,2.08
2023-04-14T14:00:41.693Z,2.33
2023-04-14T14:03:29.113Z,2.15
2023-04-14T14:06:15.592Z,2.53
2023-04-14T14:09:06.411Z,2.05
2023-04-14T14:11:52.206Z,2.65
2023-04-14T14:14:38.088Z,2.47
2023-04-14T14:17:23.443Z,2.25
2023-04-14T14:20:09.686Z,3.60
2023-04-14T14:22:55.230Z,4.15
2023-04-14T14:25:41.054Z,4.40
2023-04-14T14:28:26.267Z,5.15
2023-04-14T14:31:11.617Z,7.95
2023-04-14T14:33:56.860Z,7.38
2023-04-14T14:36:43.609Z,5.90
2023-04-14T14:39:32.064Z,2.70
2023-04-14T14:42:17.031Z,2.27
2023-04-14T14:45:02.337Z,2.05
2023-04-14T14:47:47.775Z,2.45
2023-04-14T14:50:32.930Z,2.13
2023-04-14T14:53:18.349Z,2.17
2023-04-14T14:56:03.803Z,3.28
2023-04-14T14:58:48.876Z,8.10
2023-04-14T15:01:35.027Z,16.45
2023-04-14T15:04:20.438Z,17.33
2023-04-14T15:07:05.862Z,13.52
2023-04-14T15:09:50.996Z,16.27
2023-04-14T15:12:36.123Z,17.63
2023-04-14T15:15:21.375Z,9.93
2023-04-14T15:18:07.351Z,4.90
2023-04-14T15:20:56.102Z,3.58
2023-04-14T15:23:43.576Z,3.38
2023-04-14T15:26:28.903Z,4.40
2023-04-14T15:29:14.000Z,3.38
2023-04-14T15:32:00.407Z,3.67
2023-04-14T15:34:45.890Z,3.10
2023-04-14T15:37:31.067Z,2.85
2023-04-14T15:40:16.374Z,4.63
2023-04-14T15:43:01.686Z,3.70
2023-04-14T15:45:46.617Z,16.15
2023-04-14T15:48:31.946Z,9.50
2023-04-14T15:51:17.173Z,3.47
2023-04-14T15:54:02.684Z,3.22
2023-04-14T15:56:48.097Z,3.20
2023-04-14T15:59:33.437Z,2.92
2023-04-14T16:02:18.665Z,3.42
2023-04-14T16:05:07.288Z,3.53
2023-04-14T16:07:52.773Z,2.97
2023-04-14T16:10:41.831Z,3.42
2023-04-14T16:13:27.471Z,3.55
2023-04-14T16:16:13.796Z,3.60
2023-04-14T16:18:59.119Z,4.35
2023-04-14T16:21:44.527Z,6.60
2023-04-14T16:24:34.282Z,4.30
2023-04-14T16:27:19.291Z,4.43
2023-04-14T16:30:04.886Z,6.25
2023-04-14T16:32:50.372Z,6.07
2023-04-14T16:35:35.484Z,6.20
2023-04-14T16:38:20.379Z,6.75
2023-04-14T16:41:05.803Z,6.63
2023-04-14T16:43:51.056Z,5.35
2023-04-14T16:46:36.331Z,5.18
2023-04-14T16:49:21.779Z,4.60
2023-04-14T16:52:07.361Z,3.95
2023-04-14T16:54:54.388Z,3.83
2023-04-14T16:57:39.607Z,3.92
2023-04-14T17:00:25.201Z,4.57
2023-04-14T17:03:10.760Z,4.35
2023-04-14T17:05:56.547Z,4.13
2023-04-14T17:08:41.654Z,6.43
2023-04-14T17:11:27.082Z,4.50
2023-04-14T17:14:12.289Z,4.88
2023-04-14T17:16:57.775Z,4.07
2023-04-14T17:19:42.991Z,4.38
2023-04-14T17:22:28.298Z,4.70
2023-04-14T17:25:16.360Z,6.03
2023-04-14T17:28:02.386Z,3.30
2023-04-14T17:30:47.590Z,5.28
2023-04-14T17:33:32.795Z,3.25
2023-04-14T17:36:17.842Z,3.20
2023-04-14T17:39:03.986Z,3.92
2023-04-14T17:41:49.450Z,4.68
2023-04-14T17:44:35.273Z,5.30
2023-04-14T17:47:22.009Z,4.80
2023-04-14T17:50:07.809Z,3.63
2023-04-14T17:52:53.223Z,11.02
2023-04-14T17:55:38.481Z,5.07
2023-04-14T17:58:27.145Z,2.70
2023-04-14T18:01:12.342Z,3.38
2023-04-14T18:03:59.831Z,2.72
2023-04-14T18:06:45.440Z,2.22
2023-04-14T18:09:30.610Z,2.90
2023-04-14T18:12:15.750Z,2.97
2023-04-14T18:15:01.093Z,3.13
2023-04-14T18:17:46.850Z,3.03
2023-04-14T18:20:32.231Z,2.95
2023-04-14T18:23:17.539Z,2.70
2023-04-14T18:28:51.612Z,2.92
2023-04-14T18:31:37.215Z,3.83
2023-04-14T18:34:22.795Z,3.78
2023-04-14T18:37:07.978Z,3.65
2023-04-14T18:39:53.003Z,2.92
2023-04-14T18:42:39.044Z,3.35
2023-04-14T18:45:24.624Z,3.25
2023-04-14T18:48:10.010Z,3.58
2023-04-14T18:51:01.965Z,3.97
2023-04-14T18:53:48.186Z,3.00
2023-04-14T18:56:33.397Z,3.75
2023-04-14T18:59:18.859Z,3.83
2023-04-14T19:02:04.598Z,4.00
2023-04-14T19:04:50.241Z,3.92
2023-04-14T19:07:35.986Z,3.92
2023-04-14T19:10:21.381Z,5.88
2023-04-14T19:13:06.834Z,3.55
2023-04-14T19:15:52.838Z,3.70
2023-04-14T19:18:52.512Z,3.30
2023-04-14T19:21:37.617Z,3.30
2023-04-14T19:24:23.494Z,4.00
2023-04-14T19:27:10.436Z,3.63
2023-04-14T19:29:57.470Z,4.20
2023-04-14T19:32:42.871Z,3.03
2023-04-14T19:35:28.768Z,3.72
2023-04-14T19:38:13.808Z,3.55
2023-04-14T19:40:59.060Z,4.93
2023-04-14T19:43:45.687Z,4.75
2023-04-14T19:46:31.596Z,5.00
2023-04-14T19:49:16.641Z,4.03
2023-04-14T19:52:01.986Z,4.32
2023-04-14T19:54:47.520Z,2.72
2023-04-14T19:57:33.228Z,2.92
2023-04-14T20:00:18.450Z,3.20
2023-04-14T20:03:03.790Z,2.58
2023-04-14T20:05:54.931Z,3.08
2023-04-14T20:08:40.829Z,3.22
2023-04-14T20:11:28.172Z,2.92
2023-04-14T20:14:13.711Z,2.90
2023-04-14T20:16:59.424Z,2.47
2023-04-14T20:19:44.614Z,2.45
2023-04-14T20:22:33.494Z,2.53
2023-04-14T20:25:19.159Z,2.97
2023-04-14T20:28:05.236Z,2.97
2023-04-14T20:30:54.760Z,2.47
2023-04-14T20:33:40.121Z,2.03
2023-04-14T20:36:25.298Z,2.10
2023-04-14T20:39:10.819Z,2.00
2023-04-14T20:41:55.858Z,2.80
2023-04-14T20:44:41.287Z,1.73
2023-04-14T20:47:26.733Z,1.70
2023-04-14T20:50:12.370Z,1.48
2023-04-14T20:52:57.488Z,1.90
2023-04-14T20:55:43.459Z,1.30
2023-04-14T20:58:28.484Z,1.08
2023-04-14T21:01:13.793Z,1.38
2023-04-14T21:03:59.271Z,1.75
2023-04-14T21:06:44.578Z,1.48
2023-04-14T21:09:30.223Z,1.50
2023-04-14T21:12:16.667Z,1.30
2023-04-14T21:15:47.535Z,1.48
2023-04-14T21:18:06.904Z,3.03
2023-04-14T21:20:52.229Z,2.53
2023-04-14T21:23:37.773Z,1.50
2023-04-14T21:26:23.901Z,1.60
2023-04-14T21:29:09.460Z,1.25
2023-04-14T21:31:54.755Z,1.10
2023-04-14T21:34:40.817Z,1.20
2023-04-14T21:37:25.960Z,0.90
2023-04-14T21:40:11.704Z,0.93
2023-04-14T21:42:56.712Z,1.17
2023-04-14T21:45:42.298Z,1.20
2023-04-14T21:48:27.825Z,1.75
2023-04-14T21:51:13.458Z,1.27
2023-04-14T21:53:58.519Z,0.95
2023-04-14T21:56:45.055Z,0.90
2023-04-14T21:59:30.673Z,0.95
2023-04-14T22:02:16.758Z,0.80
2023-04-14T22:05:02.317Z,0.93
2023-04-14T22:07:47.382Z,0.90
2023-04-14T22:10:32.752Z,1.00
2023-04-14T22:13:18.496Z,0.88
2023-04-14T22:16:04.129Z,0.77
2023-04-14T22:18:49.272Z,0.70
2023-04-14T22:21:34.933Z,1.00
2023-04-14T22:24:20.154Z,0.80
2023-04-14T22:27:05.378Z,0.98
2023-04-14T22:29:50.717Z,0.93
2023-04-14T22:32:36.425Z,0.90
2023-04-14T22:35:22.043Z,0.93
2023-04-14T22:38:07.554Z,0.70
2023-04-14T22:40:52.850Z,0.80
2023-04-14T22:43:38.365Z,1.00
2023-04-14T22:46:23.638Z,0.80
2023-04-14T22:49:08.955Z,0.85
2023-04-14T22:51:54.265Z,1.00
2023-04-14T22:54:39.641Z,1.00
2023-04-14T22:57:25.066Z,0.68
2023-04-14T23:00:11.874Z,0.75
2023-04-14T23:02:59.376Z,0.80
2023-04-14T23:05:44.864Z,0.73
2023-04-14T23:08:30.500Z,1.05
2023-04-14T23:11:20.877Z,1.20
2023-04-14T23:14:06.653Z,1.13
2023-04-14T23:16:51.993Z,0.80
2023-04-14T23:19:37.636Z,0.90
2023-04-14T23:22:23.447Z,0.90
2023-04-14T23:25:09.302Z,0.82
2023-04-14T23:27:54.589Z,1.27
2023-04-14T23:30:41.814Z,0.90
2023-04-14T23:33:27.048Z,1.02
2023-04-14T23:36:13.499Z,0.70
2023-04-14T23:38:58.709Z,0.90
2023-04-14T23:41:44.024Z,1.08
2023-04-14T23:44:29.506Z,0.90
2023-04-14T23:47:14.896Z,0.93
2023-04-14T23:50:00.152Z,0.95
2023-04-14T23:52:45.310Z,0.93
2023-04-14T23:55:30.537Z,1.15
2023-04-14T23:58:26.099Z,0.90
